SVA1272 OEGS-OERK
Flight info
| Callsign | SVA1272 |
|---|---|
| Flight time | 0h 40m |
| Altitude | 31000 |
| Route | GAS G662 SIVIS |
| Aircraft | A20N/M-SDE2E3FGHIRWXY/LB1 |
Departure
| Time | 2026-04-26 21:34 |
|---|---|
| Airport | Prince Naif bin Abdulaziz International Airport (OEGS) |
Arrival
| Time | 2026-04-26 22:14 |
|---|---|
| Airport | King Khalid International Airport (OERK) |
| Time | Latitude | Longitude | Altitude | Speed | Heading |
|---|---|---|---|---|---|
| 2026-04-26 21:21 | 26.30388 | 43.77014 | 2136 ft | 0 kts | 242° |
| 2026-04-26 21:23 | 26.30388 | 43.77015 | 2136 ft | 0 kts | 242° |
| 2026-04-26 21:23 | 26.30389 | 43.77016 | 2136 ft | 1 kts | 242° |
| 2026-04-26 21:24 | 26.30395 | 43.77028 | 2135 ft | 2 kts | 242° |
| 2026-04-26 21:24 | 26.30402 | 43.77045 | 2134 ft | 3 kts | 244° |
| 2026-04-26 21:24 | 26.30410 | 43.77064 | 2134 ft | 3 kts | 257° |
| 2026-04-26 21:24 | 26.30411 | 43.77077 | 2135 ft | 2 kts | 293° |
| 2026-04-26 21:25 | 26.30405 | 43.77087 | 2134 ft | 2 kts | 321° |
| 2026-04-26 21:25 | 26.30396 | 43.77094 | 2133 ft | 2 kts | 332° |
| 2026-04-26 21:25 | 26.30386 | 43.77099 | 2132 ft | 2 kts | 333° |
| 2026-04-26 21:25 | 26.30383 | 43.77101 | 2135 ft | 0 kts | 334° |
| 2026-04-26 21:28 | 26.30384 | 43.77101 | 2135 ft | 1 kts | 334° |
| 2026-04-26 21:28 | 26.30396 | 43.77094 | 2133 ft | 4 kts | 334° |
| 2026-04-26 21:29 | 26.30436 | 43.77072 | 2135 ft | 10 kts | 333° |
| 2026-04-26 21:29 | 26.30513 | 43.77029 | 2138 ft | 14 kts | 333° |
| 2026-04-26 21:29 | 26.30606 | 43.76976 | 2137 ft | 15 kts | 333° |
| 2026-04-26 21:29 | 26.30712 | 43.76915 | 2135 ft | 19 kts | 331° |
| 2026-04-26 21:30 | 26.30839 | 43.76841 | 2134 ft | 22 kts | 333° |
| 2026-04-26 21:30 | 26.30975 | 43.76763 | 2130 ft | 22 kts | 333° |
| 2026-04-26 21:30 | 26.31094 | 43.76696 | 2131 ft | 16 kts | 333° |
| 2026-04-26 21:30 | 26.31192 | 43.76641 | 2131 ft | 17 kts | 332° |
| 2026-04-26 21:31 | 26.31305 | 43.76602 | 2132 ft | 18 kts | 10° |
| 2026-04-26 21:31 | 26.31397 | 43.76631 | 2133 ft | 8 kts | 17° |
| 2026-04-26 21:31 | 26.31446 | 43.76672 | 2132 ft | 11 kts | 61° |
| 2026-04-26 21:31 | 26.31431 | 43.76752 | 2131 ft | 12 kts | 163° |
| 2026-04-26 21:32 | 26.31389 | 43.76784 | 2131 ft | 8 kts | 142° |
| 2026-04-26 21:32 | 26.31335 | 43.76819 | 2132 ft | 10 kts | 152° |
| 2026-04-26 21:32 | 26.31310 | 43.76832 | 2131 ft | 0 kts | 154° |
| 2026-04-26 21:33 | 26.31154 | 43.76919 | 2129 ft | 67 kts | 153° |
| 2026-04-26 21:33 | 26.30499 | 43.77295 | 2134 ft | 141 kts | 152° |
| 2026-04-26 21:34 | 26.29513 | 43.77882 | 2565 ft | 162 kts | 152° |
| 2026-04-26 21:34 | 26.28514 | 43.78423 | 3417 ft | 160 kts | 151° |
| 2026-04-26 21:34 | 26.27513 | 43.78984 | 4180 ft | 164 kts | 151° |
| 2026-04-26 21:34 | 26.26438 | 43.79600 | 4571 ft | 184 kts | 151° |
| 2026-04-26 21:35 | 26.25241 | 43.80287 | 4972 ft | 202 kts | 152° |
| 2026-04-26 21:35 | 26.23927 | 43.81041 | 5285 ft | 223 kts | 153° |
| 2026-04-26 21:35 | 26.22481 | 43.81872 | 5607 ft | 246 kts | 152° |
| 2026-04-26 21:35 | 26.21167 | 43.83189 | 5938 ft | 268 kts | 124° |
| 2026-04-26 21:36 | 26.20299 | 43.85093 | 6514 ft | 281 kts | 113° |
| 2026-04-26 21:36 | 26.19831 | 43.86451 | 6982 ft | 286 kts | 111° |
| 2026-04-26 21:36 | 26.18895 | 43.89263 | 7989 ft | 293 kts | 113° |
| 2026-04-26 21:36 | 26.18147 | 43.91366 | 8725 ft | 299 kts | 114° |
| 2026-04-26 21:37 | 26.17340 | 43.93517 | 9493 ft | 304 kts | 116° |
| 2026-04-26 21:37 | 26.16498 | 43.95693 | 10222 ft | 309 kts | 116° |
| 2026-04-26 21:37 | 26.15608 | 43.97955 | 10562 ft | 331 kts | 116° |
| 2026-04-26 21:37 | 26.14648 | 44.00381 | 10800 ft | 353 kts | 116° |
| 2026-04-26 21:38 | 26.13648 | 44.02919 | 11386 ft | 361 kts | 116° |
| 2026-04-26 21:38 | 26.12637 | 44.05490 | 12168 ft | 364 kts | 116° |
| 2026-04-26 21:38 | 26.11616 | 44.08089 | 12929 ft | 368 kts | 116° |
| 2026-04-26 21:38 | 26.10583 | 44.10714 | 13657 ft | 373 kts | 116° |
| 2026-04-26 21:39 | 26.09537 | 44.13367 | 14323 ft | 378 kts | 116° |
| 2026-04-26 21:39 | 26.08470 | 44.16067 | 14937 ft | 383 kts | 116° |
| 2026-04-26 21:39 | 26.07390 | 44.18798 | 15564 ft | 388 kts | 116° |
| 2026-04-26 21:39 | 26.06295 | 44.21564 | 16184 ft | 394 kts | 116° |
| 2026-04-26 21:40 | 26.05183 | 44.24371 | 16749 ft | 399 kts | 116° |
| 2026-04-26 21:40 | 26.04058 | 44.27211 | 17345 ft | 404 kts | 116° |
| 2026-04-26 21:40 | 26.02934 | 44.30048 | 17947 ft | 409 kts | 116° |
| 2026-04-26 21:40 | 26.01776 | 44.32970 | 18497 ft | 414 kts | 116° |
| 2026-04-26 21:41 | 26.00607 | 44.35918 | 18819 ft | 418 kts | 116° |
| 2026-04-26 21:41 | 25.99433 | 44.38879 | 18935 ft | 419 kts | 116° |
| 2026-04-26 21:41 | 25.98257 | 44.41839 | 18958 ft | 419 kts | 116° |
| 2026-04-26 21:41 | 25.97081 | 44.44800 | 18961 ft | 418 kts | 116° |
| 2026-04-26 21:42 | 25.95903 | 44.47763 | 18964 ft | 418 kts | 116° |
| 2026-04-26 21:42 | 25.94729 | 44.50715 | 18964 ft | 418 kts | 116° |
| 2026-04-26 21:42 | 25.93552 | 44.53671 | 18962 ft | 418 kts | 116° |
| 2026-04-26 21:42 | 25.92374 | 44.56627 | 18964 ft | 419 kts | 116° |
| 2026-04-26 21:43 | 25.91195 | 44.59586 | 18961 ft | 418 kts | 116° |
| 2026-04-26 21:43 | 25.90030 | 44.62505 | 18958 ft | 419 kts | 116° |
| 2026-04-26 21:43 | 25.88848 | 44.65466 | 18961 ft | 420 kts | 116° |
| 2026-04-26 21:43 | 25.87666 | 44.68424 | 18961 ft | 419 kts | 116° |
| 2026-04-26 21:44 | 25.86481 | 44.71386 | 18964 ft | 419 kts | 116° |
| 2026-04-26 21:44 | 25.85192 | 44.74291 | 18967 ft | 418 kts | 121° |
| 2026-04-26 21:44 | 25.83845 | 44.77145 | 18965 ft | 418 kts | 120° |
| 2026-04-26 21:44 | 25.82500 | 44.80011 | 18966 ft | 418 kts | 120° |
| 2026-04-26 21:45 | 25.81155 | 44.82880 | 18963 ft | 418 kts | 120° |
| 2026-04-26 21:45 | 25.79812 | 44.85743 | 18962 ft | 418 kts | 121° |
| 2026-04-26 21:45 | 25.78463 | 44.88613 | 18963 ft | 418 kts | 120° |
| 2026-04-26 21:45 | 25.77119 | 44.91471 | 18963 ft | 418 kts | 121° |
| 2026-04-26 21:46 | 25.75773 | 44.94330 | 18967 ft | 418 kts | 121° |
| 2026-04-26 21:46 | 25.74443 | 44.97151 | 18966 ft | 418 kts | 121° |
| 2026-04-26 21:46 | 25.73093 | 45.00015 | 18959 ft | 418 kts | 120° |
| 2026-04-26 21:46 | 25.71744 | 45.02873 | 18966 ft | 418 kts | 120° |
| 2026-04-26 21:47 | 25.70399 | 45.05720 | 18967 ft | 418 kts | 120° |
| 2026-04-26 21:47 | 25.69054 | 45.08567 | 18933 ft | 414 kts | 120° |
| 2026-04-26 21:47 | 25.67761 | 45.11402 | 18675 ft | 412 kts | 114° |
| 2026-04-26 21:47 | 25.66907 | 45.14425 | 18268 ft | 410 kts | 105° |
| 2026-04-26 21:48 | 25.66242 | 45.17480 | 17733 ft | 406 kts | 104° |
| 2026-04-26 21:48 | 25.65606 | 45.20520 | 17170 ft | 403 kts | 104° |
| 2026-04-26 21:48 | 25.64954 | 45.23541 | 16646 ft | 400 kts | 105° |
| 2026-04-26 21:48 | 25.64286 | 45.26515 | 16160 ft | 396 kts | 105° |
| 2026-04-26 21:49 | 25.63608 | 45.29460 | 15653 ft | 393 kts | 106° |
| 2026-04-26 21:49 | 25.62927 | 45.32381 | 15169 ft | 389 kts | 106° |
| 2026-04-26 21:49 | 25.62248 | 45.35276 | 14681 ft | 386 kts | 106° |
| 2026-04-26 21:49 | 25.61574 | 45.38146 | 14208 ft | 383 kts | 106° |
| 2026-04-26 21:50 | 25.60905 | 45.40986 | 13728 ft | 380 kts | 107° |
| 2026-04-26 21:50 | 25.60465 | 45.42860 | 13372 ft | 378 kts | 107° |
| 2026-04-26 21:50 | 25.59584 | 45.46606 | 12715 ft | 373 kts | 107° |
| 2026-04-26 21:50 | 25.58931 | 45.49377 | 12213 ft | 370 kts | 107° |
| 2026-04-26 21:51 | 25.58291 | 45.52095 | 11743 ft | 367 kts | 108° |
| 2026-04-26 21:51 | 25.57649 | 45.54822 | 11266 ft | 364 kts | 108° |
| 2026-04-26 21:51 | 25.57013 | 45.57520 | 10810 ft | 361 kts | 108° |
| 2026-04-26 21:51 | 25.56380 | 45.60202 | 10411 ft | 356 kts | 109° |
| 2026-04-26 21:52 | 25.55768 | 45.62802 | 10274 ft | 343 kts | 109° |
| 2026-04-26 21:52 | 25.55176 | 45.65313 | 10151 ft | 329 kts | 109° |
| 2026-04-26 21:52 | 25.54608 | 45.67712 | 10033 ft | 316 kts | 109° |
| 2026-04-26 21:52 | 25.54237 | 45.69284 | 9913 ft | 309 kts | 110° |
| 2026-04-26 21:53 | 25.53517 | 45.72306 | 9431 ft | 305 kts | 110° |
| 2026-04-26 21:53 | 25.53158 | 45.73806 | 9219 ft | 302 kts | 110° |
| 2026-04-26 21:53 | 25.52622 | 45.76049 | 8780 ft | 301 kts | 109° |
| 2026-04-26 21:53 | 25.52088 | 45.78285 | 8434 ft | 298 kts | 109° |
| 2026-04-26 21:54 | 25.51560 | 45.80492 | 8095 ft | 295 kts | 109° |
| 2026-04-26 21:54 | 25.51038 | 45.82681 | 7754 ft | 292 kts | 109° |
| 2026-04-26 21:54 | 25.50522 | 45.84847 | 7435 ft | 288 kts | 109° |
| 2026-04-26 21:54 | 25.50011 | 45.86987 | 7070 ft | 286 kts | 109° |
| 2026-04-26 21:55 | 25.49505 | 45.89109 | 6733 ft | 284 kts | 108° |
| 2026-04-26 21:55 | 25.49003 | 45.91208 | 6430 ft | 280 kts | 108° |
| 2026-04-26 21:55 | 25.48507 | 45.93277 | 6077 ft | 277 kts | 109° |
| 2026-04-26 21:55 | 25.48013 | 45.95338 | 5707 ft | 276 kts | 108° |
| 2026-04-26 21:56 | 25.47524 | 45.97379 | 5402 ft | 272 kts | 108° |
| 2026-04-26 21:56 | 25.47046 | 45.99380 | 5133 ft | 267 kts | 109° |
| 2026-04-26 21:56 | 25.46573 | 46.01353 | 5014 ft | 266 kts | 109° |
| 2026-04-26 21:56 | 25.46093 | 46.03349 | 4981 ft | 269 kts | 109° |
| 2026-04-26 21:57 | 25.45620 | 46.05319 | 4977 ft | 268 kts | 109° |
| 2026-04-26 21:57 | 25.45140 | 46.07315 | 4977 ft | 268 kts | 109° |
| 2026-04-26 21:57 | 25.44662 | 46.09307 | 4985 ft | 268 kts | 109° |
| 2026-04-26 21:57 | 25.44180 | 46.11308 | 4983 ft | 270 kts | 109° |
| 2026-04-26 21:58 | 25.43696 | 46.13319 | 4987 ft | 274 kts | 109° |
| 2026-04-26 21:58 | 25.43207 | 46.15352 | 4984 ft | 272 kts | 109° |
| 2026-04-26 21:58 | 25.42724 | 46.17371 | 4978 ft | 270 kts | 110° |
| 2026-04-26 21:58 | 25.42244 | 46.19374 | 4986 ft | 269 kts | 109° |
| 2026-04-26 21:59 | 25.41757 | 46.21390 | 4988 ft | 273 kts | 109° |
| 2026-04-26 21:59 | 25.41291 | 46.23415 | 4984 ft | 272 kts | 103° |
| 2026-04-26 21:59 | 25.41420 | 46.25467 | 4988 ft | 267 kts | 76° |
| 2026-04-26 21:59 | 25.42253 | 46.27252 | 4985 ft | 254 kts | 63° |
| 2026-04-26 22:00 | 25.43134 | 46.28898 | 4990 ft | 253 kts | 64° |
| 2026-04-26 22:00 | 25.44020 | 46.30570 | 4987 ft | 248 kts | 64° |
| 2026-04-26 22:00 | 25.44882 | 46.32205 | 4994 ft | 248 kts | 64° |
| 2026-04-26 22:00 | 25.45626 | 46.33884 | 4990 ft | 231 kts | 83° |
| 2026-04-26 22:01 | 25.45623 | 46.35526 | 4989 ft | 201 kts | 112° |
| 2026-04-26 22:01 | 25.45024 | 46.36801 | 4989 ft | 180 kts | 137° |
| 2026-04-26 22:01 | 25.44050 | 46.37657 | 4991 ft | 178 kts | 155° |
| 2026-04-26 22:01 | 25.42976 | 46.38314 | 4987 ft | 173 kts | 154° |
| 2026-04-26 22:02 | 25.41968 | 46.38959 | 4992 ft | 165 kts | 153° |
| 2026-04-26 22:02 | 25.40965 | 46.39605 | 4992 ft | 167 kts | 153° |
| 2026-04-26 22:02 | 25.39962 | 46.40252 | 4992 ft | 167 kts | 153° |
| 2026-04-26 22:02 | 25.38959 | 46.40897 | 4994 ft | 166 kts | 153° |
| 2026-04-26 22:03 | 25.37958 | 46.41539 | 4994 ft | 166 kts | 153° |
| 2026-04-26 22:03 | 25.36955 | 46.42182 | 4994 ft | 166 kts | 153° |
| 2026-04-26 22:03 | 25.35950 | 46.42825 | 4994 ft | 166 kts | 153° |
| 2026-04-26 22:03 | 25.34961 | 46.43455 | 4995 ft | 166 kts | 154° |
| 2026-04-26 22:04 | 25.33955 | 46.44094 | 4992 ft | 166 kts | 154° |
| 2026-04-26 22:04 | 25.32949 | 46.44723 | 4991 ft | 164 kts | 156° |
| 2026-04-26 22:04 | 25.31944 | 46.45295 | 4993 ft | 163 kts | 154° |
| 2026-04-26 22:04 | 25.30955 | 46.45910 | 4992 ft | 164 kts | 153° |
| 2026-04-26 22:05 | 25.29968 | 46.46542 | 4992 ft | 164 kts | 153° |
| 2026-04-26 22:05 | 25.28984 | 46.47173 | 4992 ft | 164 kts | 153° |
| 2026-04-26 22:05 | 25.27999 | 46.47802 | 4992 ft | 164 kts | 153° |
| 2026-04-26 22:05 | 25.27017 | 46.48429 | 4992 ft | 163 kts | 153° |
| 2026-04-26 22:06 | 25.26026 | 46.49062 | 4999 ft | 166 kts | 153° |
| 2026-04-26 22:06 | 25.24929 | 46.49758 | 4999 ft | 192 kts | 153° |
| 2026-04-26 22:06 | 25.23793 | 46.50487 | 4994 ft | 190 kts | 153° |
| 2026-04-26 22:06 | 25.22640 | 46.51224 | 4994 ft | 191 kts | 153° |
| 2026-04-26 22:07 | 25.21487 | 46.51960 | 4993 ft | 191 kts | 153° |
| 2026-04-26 22:07 | 25.20334 | 46.52696 | 4991 ft | 191 kts | 153° |
| 2026-04-26 22:07 | 25.19178 | 46.53433 | 4990 ft | 192 kts | 153° |
| 2026-04-26 22:07 | 25.18024 | 46.54169 | 4990 ft | 192 kts | 153° |
| 2026-04-26 22:08 | 25.16891 | 46.54892 | 4988 ft | 192 kts | 153° |
| 2026-04-26 22:08 | 25.15712 | 46.55643 | 4986 ft | 192 kts | 153° |
| 2026-04-26 22:08 | 25.14560 | 46.56378 | 4995 ft | 187 kts | 153° |
| 2026-04-26 22:08 | 25.13498 | 46.57057 | 4975 ft | 164 kts | 153° |
| 2026-04-26 22:09 | 25.12596 | 46.57634 | 4975 ft | 144 kts | 154° |
| 2026-04-26 22:09 | 25.11709 | 46.58193 | 4981 ft | 147 kts | 154° |
| 2026-04-26 22:09 | 25.10829 | 46.58755 | 4966 ft | 147 kts | 154° |
| 2026-04-26 22:09 | 25.09941 | 46.59320 | 4829 ft | 146 kts | 154° |
| 2026-04-26 22:10 | 25.09066 | 46.59878 | 4649 ft | 144 kts | 154° |
| 2026-04-26 22:10 | 25.08199 | 46.60429 | 4467 ft | 144 kts | 153° |
| 2026-04-26 22:10 | 25.07343 | 46.60974 | 4285 ft | 138 kts | 153° |
| 2026-04-26 22:10 | 25.06537 | 46.61488 | 4119 ft | 132 kts | 153° |
| 2026-04-26 22:11 | 25.05742 | 46.61993 | 3958 ft | 131 kts | 152° |
| 2026-04-26 22:11 | 25.04947 | 46.62499 | 3797 ft | 133 kts | 152° |
| 2026-04-26 22:11 | 25.04129 | 46.63019 | 3640 ft | 139 kts | 151° |
| 2026-04-26 22:11 | 25.03287 | 46.63555 | 3464 ft | 140 kts | 150° |
| 2026-04-26 22:12 | 25.02446 | 46.64090 | 3285 ft | 137 kts | 149° |
| 2026-04-26 22:12 | 25.01618 | 46.64618 | 3106 ft | 138 kts | 149° |
| 2026-04-26 22:12 | 25.00776 | 46.65153 | 2919 ft | 140 kts | 149° |
| 2026-04-26 22:12 | 24.99943 | 46.65682 | 2733 ft | 137 kts | 149° |
| 2026-04-26 22:13 | 24.99105 | 46.66214 | 2545 ft | 140 kts | 149° |
| 2026-04-26 22:13 | 24.98269 | 46.66746 | 2346 ft | 136 kts | 150° |
| 2026-04-26 22:13 | 24.97445 | 46.67269 | 2164 ft | 140 kts | 150° |
| 2026-04-26 22:13 | 24.96604 | 46.67801 | 2036 ft | 138 kts | 149° |
| 2026-04-26 22:14 | 24.95855 | 46.68273 | 2014 ft | 100 kts | 149° |
| 2026-04-26 22:14 | 24.95425 | 46.68542 | 2016 ft | 42 kts | 152° |
| 2026-04-26 22:14 | 24.95200 | 46.68684 | 2016 ft | 36 kts | 150° |
| 2026-04-26 22:14 | 24.95028 | 46.68832 | 2015 ft | 26 kts | 131° |
| 2026-04-26 22:15 | 24.94964 | 46.68973 | 2019 ft | 6 kts | 99° |
| 2026-04-26 22:15 | 24.94958 | 46.69027 | 2017 ft | 8 kts | 93° |
| 2026-04-26 22:15 | 24.94981 | 46.69089 | 2015 ft | 9 kts | 60° |
| 2026-04-26 22:15 | 24.95008 | 46.69140 | 2015 ft | 9 kts | 60° |
| 2026-04-26 22:16 | 24.95042 | 46.69206 | 2016 ft | 11 kts | 60° |
| 2026-04-26 22:16 | 24.95084 | 46.69286 | 2015 ft | 13 kts | 60° |
| 2026-04-26 22:16 | 24.95133 | 46.69379 | 2016 ft | 15 kts | 60° |
| 2026-04-26 22:16 | 24.95176 | 46.69462 | 2015 ft | 13 kts | 60° |
| 2026-04-26 22:17 | 24.95236 | 46.69539 | 2015 ft | 14 kts | 22° |
| 2026-04-26 22:17 | 24.95323 | 46.69564 | 2015 ft | 11 kts | 14° |
| 2026-04-26 22:17 | 24.95407 | 46.69566 | 2017 ft | 13 kts | 334° |
| 2026-04-26 22:17 | 24.95491 | 46.69513 | 2015 ft | 11 kts | 330° |
| 2026-04-26 22:18 | 24.95564 | 46.69468 | 2019 ft | 13 kts | 330° |
| 2026-04-26 22:18 | 24.95644 | 46.69416 | 2015 ft | 13 kts | 329° |
| 2026-04-26 22:18 | 24.95705 | 46.69439 | 2017 ft | 11 kts | 79° |
| 2026-04-26 22:18 | 24.95702 | 46.69473 | 2015 ft | 4 kts | 104° |
| 2026-04-26 22:19 | 24.95685 | 46.69508 | 2017 ft | 6 kts | 120° |
| 2026-04-26 22:19 | 24.95677 | 46.69525 | 2015 ft | 2 kts | 119° |
| 2026-04-26 22:19 | 24.95672 | 46.69533 | 2018 ft | 0 kts | 119° |